Time;durP1;ratioP1;P1;durP2;ratioP2;P2;SDS_P1;SDS_P2;PMS_P1;PMS_P2;Temp;Humidity;BMP_temperature;BMP_pressure;BME280_temperature;BME280_humidity;BME280_pressure;Samples;Min_cycle;Max_cycle;Signal;HPM_P1;HPM_P2
2022/04/17 00:01:04;;;;;;;13.55;7.75;;;;;;;1.30;81.22;102611.47;4996805;28;20050;-55
2022/04/17 00:03:30;;;;;;;13.60;7.70;;;;;;;1.30;81.26;102615.69;4996473;28;20054;-52
2022/04/17 00:05:59;;;;;;;10.25;5.97;;;;;;;1.27;81.30;102622.38;4996367;28;20065;-53
2022/04/17 00:08:27;;;;;;;12.18;4.88;;;;;;;1.29;81.32;102619.03;4996406;28;20050;-55
2022/04/17 00:10:54;;;;;;;12.07;5.63;;;;;;;1.30;81.37;102620.81;4996326;28;20050;-54
2022/04/17 00:13:21;;;;;;;13.50;5.28;;;;;;;1.30;81.30;102618.25;4996431;28;20060;-55
2022/04/17 00:15:47;;;;;;;12.85;5.40;;;;;;;1.31;81.08;102612.34;4996395;28;20085;-52
2022/04/17 00:18:16;;;;;;;9.73;5.35;;;;;;;1.33;81.54;102610.75;4995877;28;20069;-53
2022/04/17 00:20:43;;;;;;;10.38;5.53;;;;;;;1.37;81.45;102612.69;4996149;28;20144;-54
2022/04/17 00:23:10;;;;;;;8.02;4.75;;;;;;;1.40;81.87;102607.78;4995933;28;20050;-55
2022/04/17 00:25:37;;;;;;;11.18;5.18;;;;;;;1.45;81.94;102611.47;4996015;28;20150;-53
2022/04/17 00:28:04;;;;;;;8.82;4.85;;;;;;;1.49;81.73;102613.41;4995764;28;20492;-53
2022/04/17 00:30:31;;;;;;;7.85;3.95;;;;;;;1.50;81.59;102605.84;4995777;28;20149;-53
2022/04/17 00:32:57;;;;;;;9.55;3.97;;;;;;;1.52;81.30;102608.47;4995722;28;20050;-53
2022/04/17 00:35:25;;;;;;;10.25;3.95;;;;;;;1.54;81.32;102612.00;4996036;28;20058;-53
2022/04/17 00:37:51;;;;;;;9.30;4.63;;;;;;;1.57;81.30;102612.22;4995378;28;20137;-53
2022/04/17 00:40:19;;;;;;;8.88;4.32;;;;;;;1.58;81.17;102614.84;4995783;28;20057;-53
2022/04/17 00:42:46;;;;;;;10.05;5.13;;;;;;;1.61;81.17;102614.16;4995742;28;20062;-55
2022/04/17 00:45:14;;;;;;;7.82;4.13;;;;;;;1.63;80.79;102604.00;4995602;28;20054;-52
2022/04/17 00:47:40;;;;;;;8.80;4.18;;;;;;;1.65;80.83;102604.97;4995692;28;20085;-53
2022/04/17 00:50:08;;;;;;;8.80;4.55;;;;;;;1.65;80.64;102600.75;4994166;28;20065;-55
2022/04/17 00:52:37;;;;;;;9.07;4.50;;;;;;;1.65;80.76;102603.31;4995460;28;20054;-52
2022/04/17 00:55:05;;;;;;;11.18;4.88;;;;;;;1.64;80.73;102601.53;4995441;28;20054;-55
2022/04/17 00:57:32;;;;;;;14.35;4.88;;;;;;;1.66;80.70;102592.28;4995633;28;20058;-53
2022/04/17 00:59:59;;;;;;;12.52;5.55;;;;;;;1.65;80.81;102598.19;4995478;28;20471;-55
2022/04/17 01:02:25;;;;;;;10.50;4.90;;;;;;;1.66;80.87;102587.19;4995448;28;20058;-52
2022/04/17 01:04:52;;;;;;;10.93;5.25;;;;;;;1.67;80.84;102588.94;4995419;28;20054;-53
2022/04/17 01:07:23;;;;;;;10.65;4.50;;;;;;;1.67;80.78;102594.06;4995145;28;20061;-54
2022/04/17 01:09:51;;;;;;;10.52;4.22;;;;;;;1.69;80.71;102589.91;4995147;28;20376;-52
2022/04/17 01:12:18;;;;;;;6.22;3.55;;;;;;;1.70;80.77;102589.13;4995097;28;20065;-53
2022/04/17 01:14:45;;;;;;;7.97;3.50;;;;;;;1.72;80.62;102587.53;4995211;28;20058;-55
2022/04/17 01:17:12;;;;;;;7.82;4.32;;;;;;;1.75;80.37;102589.38;4995148;28;20097;-53
2022/04/17 01:19:40;;;;;;;7.45;3.50;;;;;;;1.77;80.53;102585.22;4994734;28;20089;-52
2022/04/17 01:22:10;;;;;;;8.15;4.07;;;;;;;1.80;80.33;102578.59;4995050;28;20086;-53
2022/04/17 01:27:22;;;;;;;8.63;3.25;;;;;;;1.81;80.18;102582.03;4994473;28;20053;-52
2022/04/17 01:29:50;;;;;;;6.13;2.90;;;;;;;1.81;79.89;102588.03;4994835;28;20058;-53
2022/04/17 01:32:17;;;;;;;5.88;3.10;;;;;;;1.80;79.90;102570.94;4994604;28;20054;-54
2022/04/17 01:34:44;;;;;;;6.50;3.53;;;;;;;1.80;79.67;102575.16;4987957;28;20061;-52
2022/04/17 01:37:13;;;;;;;7.05;2.92;;;;;;;1.79;79.78;102579.41;4984794;28;20113;-53
2022/04/17 01:39:40;;;;;;;8.18;3.13;;;;;;;1.80;80.06;102578.59;4980732;28;20050;-54
2022/04/17 01:42:07;;;;;;;6.15;2.88;;;;;;;1.79;79.47;102581.06;4975250;28;20066;-53
2022/04/17 01:44:34;;;;;;;7.50;3.40;;;;;;;1.77;79.33;102575.88;4980027;28;20042;-53
2022/04/17 01:47:05;;;;;;;6.53;2.80;;;;;;;1.76;79.50;102573.22;4994789;28;20061;-53
2022/04/17 01:49:31;;;;;;;7.85;3.05;;;;;;;1.75;79.54;102574.03;4994538;28;20057;-53
2022/04/17 01:51:58;;;;;;;6.38;3.03;;;;;;;1.72;79.14;102577.28;4994498;28;20065;-54
2022/04/17 01:54:27;;;;;;;8.40;3.60;;;;;;;1.69;78.95;102574.56;4994405;28;20078;-53
2022/04/17 01:56:55;;;;;;;6.57;3.05;;;;;;;1.69;79.00;102572.00;4994419;28;20046;-51
2022/04/17 01:59:23;;;;;;;6.90;3.67;;;;;;;1.66;78.81;102571.84;4994404;28;20049;-53
2022/04/17 02:01:50;;;;;;;8.45;3.70;;;;;;;1.65;78.73;102570.06;4994018;28;20058;-54
2022/04/17 02:04:17;;;;;;;9.77;3.80;;;;;;;1.66;78.60;102565.84;4994034;28;20069;-53
2022/04/17 02:06:45;;;;;;;6.68;3.10;;;;;;;1.63;78.47;102571.66;4993934;28;20761;-53
2022/04/17 02:09:13;;;;;;;6.45;3.80;;;;;;;1.61;78.41;102567.25;4993914;28;20042;-51
2022/04/17 02:11:41;;;;;;;6.57;3.17;;;;;;;1.58;78.22;102567.97;4994242;28;20046;-52
2022/04/17 02:14:09;;;;;;;6.78;3.10;;;;;;;1.57;78.43;102566.19;4993765;28;20542;-54
2022/04/17 02:16:36;;;;;;;8.07;4.78;;;;;;;1.54;78.15;102566.00;4993778;28;20419;-53
2022/04/17 02:19:04;;;;;;;9.25;4.10;;;;;;;1.49;78.24;102558.06;4993533;28;20050;-55
2022/04/17 02:21:31;;;;;;;11.32;4.93;;;;;;;1.50;78.45;102564.06;4994272;28;20062;-53
2022/04/17 02:23:59;;;;;;;11.80;3.75;;;;;;;1.49;78.28;102557.19;4993515;28;20082;-54
2022/04/17 02:26:25;;;;;;;10.05;4.30;;;;;;;1.46;78.20;102547.66;4994178;28;20076;-51
2022/04/17 02:28:56;;;;;;;8.27;4.53;;;;;;;1.46;78.26;102551.91;4993851;28;20054;-55
2022/04/17 02:31:23;;;;;;;9.80;3.55;;;;;;;1.46;78.03;102542.56;4993979;28;20109;-52
2022/04/17 02:33:49;;;;;;;8.80;4.38;;;;;;;1.44;78.03;102540.72;4994039;28;20057;-53
2022/04/17 02:36:15;;;;;;;7.75;3.72;;;;;;;1.43;78.13;102541.50;4993726;28;20054;-52
2022/04/17 02:38:42;;;;;;;8.25;3.58;;;;;;;1.43;78.13;102541.50;4993614;28;20050;-52
2022/04/17 02:41:08;;;;;;;6.65;2.78;;;;;;;1.44;77.84;102533.03;4993607;28;20058;-52
2022/04/17 02:43:35;;;;;;;5.85;2.80;;;;;;;1.44;77.81;102540.72;4993680;28;20061;-55
2022/04/17 02:46:03;;;;;;;8.70;3.40;;;;;;;1.44;77.48;102543.25;4993214;28;20472;-53
2022/04/17 02:48:29;;;;;;;6.85;3.42;;;;;;;1.42;77.43;102538.06;4993420;28;20475;-54
2022/04/17 02:50:56;;;;;;;5.32;2.83;;;;;;;1.41;77.51;102532.88;4993414;28;20110;-51
2022/04/17 02:53:24;;;;;;;6.03;3.30;;;;;;;1.40;77.41;102529.44;4993628;28;20082;-52
2022/04/17 02:55:50;;;;;;;6.60;3.42;;;;;;;1.41;77.34;102527.75;4993496;28;20050;-51
2022/04/17 02:58:17;;;;;;;5.47;2.80;;;;;;;1.38;77.27;102528.47;4993466;28;20061;-54
2022/04/17 03:06:16;;;;;;;;;;;;;;;1.35;77.21;102522.31;4993699;28;20093;-52
2022/04/17 03:08:44;;;;;;;4.60;2.63;;;;;;;1.34;76.80;102520.53;4993543;28;19922;-51
2022/04/17 03:11:11;;;;;;;6.38;2.90;;;;;;;1.35;76.99;102509.53;4993463;28;20046;-52
2022/04/17 03:13:38;;;;;;;6.72;3.42;;;;;;;1.33;76.83;102517.09;4996100;28;20077;-55
2022/04/17 03:16:05;;;;;;;5.38;3.13;;;;;;;1.33;76.64;102518.78;4997422;28;20057;-52
2022/04/17 03:18:33;;;;;;;7.35;2.90;;;;;;;1.32;76.54;102517.91;4997012;28;20365;-52
2022/04/17 03:21:00;;;;;;;6.90;3.10;;;;;;;1.32;76.36;102512.78;4997079;28;20047;-52
2022/04/17 03:23:26;;;;;;;6.03;2.70;;;;;;;1.33;76.40;102518.78;4997145;28;20435;-51
2022/04/17 03:25:53;;;;;;;4.78;2.40;;;;;;;1.35;76.32;102522.31;4996607;28;20073;-54
2022/04/17 03:28:20;;;;;;;5.82;2.97;;;;;;;1.36;76.33;102524.06;4997296;28;20109;-51
2022/04/17 03:30:46;;;;;;;5.28;2.97;;;;;;;1.38;76.13;102522.47;4997546;28;20069;-54
2022/04/17 03:33:13;;;;;;;7.35;3.25;;;;;;;1.38;76.09;102514.81;4997468;28;20092;-52
2022/04/17 03:35:41;;;;;;;6.15;2.92;;;;;;;1.37;75.81;102513.03;4997346;28;20066;-53
2022/04/17 03:38:07;;;;;;;7.78;3.83;;;;;;;1.37;75.83;102515.59;4997232;28;20108;-54
2022/04/17 03:40:36;;;;;;;6.15;3.10;;;;;;;1.36;75.71;102504.50;4997074;28;20050;-54
2022/04/17 03:43:04;;;;;;;6.13;3.22;;;;;;;1.38;75.75;102507.13;4997251;28;20136;-52
2022/04/17 03:45:31;;;;;;;6.43;3.58;;;;;;;1.39;75.67;102503.78;4997093;28;20058;-54
2022/04/17 03:47:58;;;;;;;10.80;3.60;;;;;;;1.39;75.72;102506.34;4996781;28;20525;-53
2022/04/17 03:50:25;;;;;;;5.60;3.22;;;;;;;1.40;75.82;102510.66;4997087;28;20554;-53
2022/04/17 03:52:53;;;;;;;6.18;2.80;;;;;;;1.43;75.95;102510.84;4997004;28;20069;-53
2022/04/17 03:55:20;;;;;;;8.60;3.22;;;;;;;1.46;76.01;102509.34;4996292;28;20472;-51
2022/04/17 03:57:46;;;;;;;9.27;3.58;;;;;;;1.52;75.71;102504.56;4997067;28;20664;-54
2022/04/17 04:00:14;;;;;;;6.32;2.58;;;;;;;1.58;75.80;102501.50;4996610;28;20061;-52
2022/04/17 04:02:41;;;;;;;7.82;3.33;;;;;;;1.64;75.73;102496.72;4996698;28;20069;-54
2022/04/17 04:05:09;;;;;;;8.75;3.72;;;;;;;1.72;75.78;102499.72;4996350;28;20444;-54
2022/04/17 04:07:36;;;;;;;5.65;2.67;;;;;;;1.80;75.59;102494.22;4996599;28;20065;-51
2022/04/17 04:10:11;;;;;;;5.30;2.80;;;;;;;1.91;75.78;102497.38;4996378;28;20341;-51
2022/04/17 04:12:39;;;;;;;4.32;2.25;;;;;;;2.02;75.70;102503.06;4996626;28;20058;-52
2022/04/17 04:15:06;;;;;;;7.75;3.60;;;;;;;2.14;75.36;102496.06;4996485;28;20069;-53
2022/04/17 04:17:33;;;;;;;9.80;4.40;;;;;;;2.27;75.35;102502.72;4996188;28;20061;-52
2022/04/17 04:20:00;;;;;;;15.93;7.00;;;;;;;2.40;75.04;102500.00;4996255;28;20055;-53
2022/04/17 04:22:26;;;;;;;17.35;8.38;;;;;;;2.54;74.43;102497.38;4996356;28;20050;-54
2022/04/17 04:24:53;;;;;;;9.50;4.82;;;;;;;2.68;74.55;102500.69;4995615;28;20482;-54
2022/04/17 04:30:05;;;;;;;7.55;4.40;;;;;;;2.97;74.11;102507.28;4995984;28;20367;-54
2022/04/17 04:32:32;;;;;;;6.40;3.22;;;;;;;3.09;73.25;102513.00;4996219;28;20054;-52
2022/04/17 04:34:59;;;;;;;8.30;3.10;;;;;;;3.20;73.24;102510.13;4996184;28;20077;-54
2022/04/17 04:37:26;;;;;;;6.15;2.60;;;;;;;3.28;72.90;102509.69;4995904;28;20050;-52
2022/04/17 04:39:52;;;;;;;5.57;2.85;;;;;;;3.37;71.95;102514.41;4996107;28;20042;-52
2022/04/17 04:42:20;;;;;;;6.18;2.92;;;;;;;3.41;71.64;102511.19;4996071;28;20054;-53
2022/04/17 04:46:06;;;;;;;5.15;2.55;;;;;;;3.45;71.53;102515.66;4995939;28;20065;-54
2022/04/17 04:47:33;;;;;;;7.07;2.97;;;;;;;3.48;71.02;102513.25;4995956;28;20061;-51
2022/04/17 04:50:03;;;;;;;7.50;3.60;;;;;;;3.52;71.24;102519.41;4995622;28;20050;-52
2022/04/17 04:52:30;;;;;;;7.55;3.05;;;;;;;3.55;70.68;102516.97;4995353;28;20474;-54
2022/04/17 04:54:56;;;;;;;5.65;2.65;;;;;;;3.60;70.46;102513.81;4995729;28;20387;-55
2022/04/17 04:57:24;;;;;;;5.47;2.75;;;;;;;3.66;70.68;102514.16;4995739;28;20050;-52
2022/04/17 04:59:50;;;;;;;6.13;2.92;;;;;;;3.71;70.82;102515.25;4995768;28;20050;-54
2022/04/17 05:02:17;;;;;;;6.90;3.35;;;;;;;3.77;69.87;102518.09;4995095;28;20539;-55
2022/04/17 05:04:43;;;;;;;6.45;3.33;;;;;;;3.91;70.36;102507.59;4995733;28;20058;-54
2022/04/17 05:07:10;;;;;;;6.88;3.40;;;;;;;4.08;70.07;102514.41;4995693;28;20061;-51
2022/04/17 05:09:36;;;;;;;5.32;3.00;;;;;;;4.26;69.66;102505.00;4995765;28;20133;-53
2022/04/17 05:12:03;;;;;;;7.00;3.70;;;;;;;4.53;69.76;102504.47;4995440;28;20092;-53
2022/04/17 05:14:31;;;;;;;8.43;3.80;;;;;;;4.84;69.91;102494.72;4995259;28;20062;-53
2022/04/17 05:16:58;;;;;;;7.63;3.05;;;;;;;5.15;69.74;102494.31;4995288;28;20054;-52
2022/04/17 05:19:27;;;;;;;6.85;3.70;;;;;;;5.52;68.53;102491.56;4995065;28;20057;-53
2022/04/17 05:21:58;;;;;;;9.70;3.80;;;;;;;5.98;67.62;102496.00;4995495;28;20105;-54
2022/04/17 05:24:25;;;;;;;6.82;2.67;;;;;;;6.49;67.04;102496.19;4995388;28;20053;-52
2022/04/17 05:26:51;;;;;;;5.55;2.53;;;;;;;6.95;65.35;102497.00;4995298;28;20054;-53
2022/04/17 05:29:18;;;;;;;4.97;2.20;;;;;;;7.39;64.29;102489.91;4995036;28;20054;-56
2022/04/17 05:31:46;;;;;;;7.40;3.67;;;;;;;7.75;62.75;102484.13;4994958;28;20054;-53
2022/04/17 05:34:12;;;;;;;4.68;2.78;;;;;;;8.06;61.17;102485.97;4995053;28;20061;-55
2022/04/17 05:36:38;;;;;;;4.47;2.42;;;;;;;8.40;60.29;102487.88;4994265;28;20054;-55
2022/04/17 05:39:06;;;;;;;5.43;2.80;;;;;;;8.71;60.02;102493.03;4994874;28;20054;-54
2022/04/17 05:41:33;;;;;;;5.65;3.33;;;;;;;8.98;58.07;102490.34;4994440;28;20553;-53
2022/04/17 05:44:01;;;;;;;6.93;3.60;;;;;;;9.25;57.25;102489.28;4994778;28;20062;-52
2022/04/17 05:46:29;;;;;;;5.18;2.63;;;;;;;9.48;56.43;102489.03;4994916;28;20050;-53
2022/04/17 05:48:58;;;;;;;4.63;2.60;;;;;;;9.73;54.95;102487.88;4994646;28;20058;-53
2022/04/17 05:51:25;;;;;;;5.82;2.88;;;;;;;9.94;54.19;102495.28;4994777;28;20054;-55
2022/04/17 05:53:55;;;;;;;4.13;2.65;;;;;;;10.09;53.49;102495.59;4994406;28;20415;-55
2022/04/17 05:56:21;;;;;;;5.70;3.13;;;;;;;10.24;52.88;102491.63;4994755;28;20081;-55
2022/04/17 05:58:48;;;;;;;5.72;3.15;;;;;;;10.44;52.15;102490.31;4994556;28;20054;-56
2022/04/17 06:01:14;;;;;;;6.32;3.50;;;;;;;10.83;51.61;102482.44;4994643;28;20065;-52
2022/04/17 06:03:41;;;;;;;4.60;2.40;;;;;;;11.34;51.03;102479.00;4994195;28;20464;-55
2022/04/17 06:06:09;;;;;;;4.78;2.40;;;;;;;12.02;49.52;102483.53;4994626;28;20061;-52
2022/04/17 06:08:35;;;;;;;4.03;2.13;;;;;;;12.73;48.06;102488.72;4994736;28;20061;-55
2022/04/17 06:11:01;;;;;;;4.30;1.90;;;;;;;13.44;46.09;102488.53;4994132;28;20713;-55
2022/04/17 06:13:28;;;;;;;3.80;1.88;;;;;;;14.15;43.87;102485.53;4994255;28;20621;-56
2022/04/17 06:15:54;;;;;;;2.80;1.50;;;;;;;14.85;42.98;102475.38;4994229;28;20054;-56
2022/04/17 06:18:21;;;;;;;3.65;2.03;;;;;;;15.63;40.58;102468.44;4993648;28;20364;-56
2022/04/17 06:20:48;;;;;;;11.85;5.90;;;;;;;16.48;37.54;102474.25;4994286;28;20061;-57
2022/04/17 06:23:16;;;;;;;5.80;3.58;;;;;;;17.27;36.35;102461.53;4994094;28;20050;-55
2022/04/17 06:25:45;;;;;;;2.15;0.90;;;;;;;18.09;32.72;102465.09;4992788;28;20050;-56
2022/04/17 06:28:12;;;;;;;1.80;1.10;;;;;;;18.50;31.23;102463.69;4974864;28;20055;-54
2022/04/17 06:30:38;;;;;;;2.47;1.00;;;;;;;18.82;31.07;102458.88;4974185;28;20550;-53
2022/04/17 06:33:05;;;;;;;1.67;0.85;;;;;;;18.94;30.23;102462.22;4974613;28;20054;-56
2022/04/17 06:35:31;;;;;;;2.15;1.10;;;;;;;18.85;29.86;102458.84;4974152;28;20472;-52
2022/04/17 06:37:59;;;;;;;1.92;0.90;;;;;;;18.82;29.56;102452.75;4989952;28;20431;-54
2022/04/17 06:40:29;;;;;;;1.83;0.80;;;;;;;18.86;28.76;102460.56;4993708;28;20050;-56
2022/04/17 06:42:57;;;;;;;1.77;0.77;;;;;;;19.00;28.84;102462.09;4993362;28;20442;-56
2022/04/17 06:45:25;;;;;;;0.80;0.80;;;;;;;19.14;28.54;102465.38;4993233;28;20058;-56
2022/04/17 06:47:51;;;;;;;1.42;0.63;;;;;;;19.35;28.59;102465.03;4993287;28;20050;-56
2022/04/17 06:50:19;;;;;;;1.83;1.10;;;;;;;19.62;27.87;102471.59;4993779;28;20053;-56
2022/04/17 06:52:46;;;;;;;2.78;0.70;;;;;;;19.41;27.46;102462.28;4993546;28;20046;-56
2022/04/17 06:55:14;;;;;;;3.05;1.73;;;;;;;19.69;26.63;102472.34;4993836;28;20085;-55
2022/04/17 06:57:47;;;;;;;3.58;2.00;;;;;;;19.08;26.39;102476.84;4993491;28;20069;-56
2022/04/17 07:00:17;;;;;;;3.17;1.50;;;;;;;19.21;27.42;102473.13;4993426;28;20061;-56
2022/04/17 07:02:43;;;;;;;2.60;1.08;;;;;;;19.41;27.26;102475.44;4993426;28;20108;-56
2022/04/17 07:05:11;;;;;;;3.72;1.25;;;;;;;19.64;26.99;102475.06;4993396;28;20058;-56
2022/04/17 07:07:37;;;;;;;2.75;1.55;;;;;;;20.02;26.69;102476.09;4993523;28;20057;-55
2022/04/17 07:10:05;;;;;;;5.95;3.20;;;;;;;20.02;26.54;102478.72;4993689;28;20042;-56
2022/04/17 07:12:31;;;;;;;5.13;2.97;;;;;;;20.67;25.79;102479.97;4993456;28;20407;-56
2022/04/17 07:15:02;;;;;;;2.72;1.95;;;;;;;21.17;24.99;102483.19;4993443;28;20141;-57
2022/04/17 07:17:35;;;;;;;3.88;2.15;;;;;;;21.57;24.33;102479.59;4993277;28;20050;-57
2022/04/17 07:20:02;;;;;;;3.97;1.90;;;;;;;21.62;23.90;102482.97;4993446;28;20050;-55
2022/04/17 07:22:29;;;;;;;3.70;2.00;;;;;;;22.01;23.59;102486.28;4993275;28;20094;-56
2022/04/17 07:24:57;;;;;;;2.60;1.58;;;;;;;22.58;23.51;102489.03;4993262;28;20146;-56
2022/04/17 07:27:25;;;;;;;2.75;1.55;;;;;;;23.11;22.33;102478.56;4993048;28;20135;-55
2022/04/17 07:29:52;;;;;;;2.55;1.70;;;;;;;23.50;22.34;102475.47;4993394;28;20077;-56
2022/04/17 07:32:20;;;;;;;2.42;1.60;;;;;;;23.85;21.24;102477.75;4993094;28;20150;-56
2022/04/17 07:34:47;;;;;;;3.10;1.45;;;;;;;23.22;21.86;102478.19;4993155;28;20510;-56
2022/04/17 07:37:13;;;;;;;2.05;1.27;;;;;;;23.57;21.31;102484.97;4992779;28;20479;-56
2022/04/17 07:39:39;;;;;;;2.85;1.20;;;;;;;23.43;20.76;102487.22;4993238;28;20065;-56
2022/04/17 07:42:06;;;;;;;2.85;1.58;;;;;;;22.59;21.87;102488.13;4993308;28;20052;-56
2022/04/17 07:44:32;;;;;;;3.83;1.77;;;;;;;22.63;21.89;102476.53;4992858;28;20084;-54
2022/04/17 07:46:59;;;;;;;2.17;1.33;;;;;;;22.90;22.01;102476.63;4993179;28;20062;-52
2022/04/17 07:49:27;;;;;;;1.98;1.10;;;;;;;23.27;21.94;102476.25;4993139;28;20057;-55
2022/04/17 07:51:54;;;;;;;1.85;0.93;;;;;;;23.71;21.52;102474.75;4993103;28;20046;-54
2022/04/17 07:54:21;;;;;;;4.55;1.60;;;;;;;24.13;20.58;102474.09;4992788;28;20047;-56
2022/04/17 07:56:47;;;;;;;2.17;0.90;;;;;;;24.35;19.92;102482.13;4992594;28;20355;-56
2022/04/17 07:59:14;;;;;;;2.45;1.35;;;;;;;24.09;19.78;102480.44;4994596;28;20050;-57
2022/04/17 08:01:43;;;;;;;2.25;1.13;;;;;;;24.27;19.90;102485.06;4996179;28;20061;-57
2022/04/17 08:04:09;;;;;;;3.28;1.45;;;;;;;24.42;20.22;102470.38;4996415;28;20046;-57
2022/04/17 08:06:37;;;;;;;2.50;1.48;;;;;;;24.79;19.96;102470.66;4996455;28;20056;-55
2022/04/17 08:09:04;;;;;;;2.90;1.30;;;;;;;24.93;18.83;102464.78;4996481;28;20054;-56
2022/04/17 08:11:30;;;;;;;2.40;1.30;;;;;;;24.61;19.33;102462.56;4996195;28;20061;-57
2022/04/17 08:13:56;;;;;;;2.45;1.45;;;;;;;23.34;19.93;102469.84;4996243;28;20053;-57
2022/04/17 08:16:23;;;;;;;3.33;1.27;;;;;;;23.55;20.19;102465.63;4996223;28;20054;-56
2022/04/17 08:18:50;;;;;;;4.43;1.88;;;;;;;23.07;19.86;102466.34;4995688;28;20054;-57
2022/04/17 08:21:17;;;;;;;3.28;1.80;;;;;;;22.51;20.12;102469.00;4996035;28;20102;-57
2022/04/17 08:23:45;;;;;;;6.82;1.70;;;;;;;21.39;20.82;102471.25;4995848;28;20186;-57
2022/04/17 08:26:11;;;;;;;14.55;3.03;;;;;;;21.44;20.89;102465.00;4996049;28;20058;-57
2022/04/17 08:28:37;;;;;;;3.13;1.80;;;;;;;21.39;21.45;102460.69;4995971;28;20054;-56
2022/04/17 08:31:06;;;;;;;3.38;1.50;;;;;;;21.41;21.25;102458.88;4995880;28;20470;-56
2022/04/17 08:33:34;;;;;;;2.65;1.40;;;;;;;21.27;21.42;102455.72;4995840;28;20060;-56
2022/04/17 08:36:00;;;;;;;3.78;1.85;;;;;;;20.72;21.79;102457.03;4989002;28;20053;-56
2022/04/17 08:38:27;;;;;;;4.03;1.70;;;;;;;20.46;21.90;102454.13;4983480;28;20456;-56
2022/04/17 08:40:58;;;;;;;4.75;1.80;;;;;;;20.14;22.48;102453.00;4980696;28;20535;-56
2022/04/17 08:43:26;;;;;;;2.90;1.40;;;;;;;20.18;22.46;102453.81;4995737;28;20078;-56
2022/04/17 08:45:54;;;;;;;3.47;1.40;;;;;;;20.26;22.14;102451.00;4993024;28;20676;-56
2022/04/17 08:48:22;;;;;;;4.55;1.67;;;;;;;20.27;22.57;102452.75;4995222;28;20054;-56
2022/04/17 08:50:53;;;;;;;5.90;1.80;;;;;;;20.32;22.20;102435.09;4989074;28;20054;-57
2022/04/17 08:53:20;;;;;;;4.55;1.42;;;;;;;20.08;22.53;102441.75;4995347;28;20396;-57
2022/04/17 08:55:47;;;;;;;3.40;1.25;;;;;;;20.08;22.40;102444.38;4992665;28;20055;-57
2022/04/17 08:58:15;;;;;;;3.88;1.33;;;;;;;20.08;21.98;102437.34;4995343;28;20060;-57
2022/04/17 09:00:42;;;;;;;3.97;1.25;;;;;;;19.98;22.13;102440.22;4982310;28;20057;-57
2022/04/17 09:03:09;;;;;;;3.83;1.40;;;;;;;19.95;22.37;102440.28;4983087;28;20082;-57
2022/04/17 09:05:37;;;;;;;2.67;1.48;;;;;;;19.80;22.81;102436.19;4995291;28;20054;-57
2022/04/17 09:08:14;;;;;;;2.83;1.50;;;;;;;18.87;23.82;102441.28;4994931;28;20443;-57
2022/04/17 09:10:41;;;;;;;2.20;1.38;;;;;;;18.47;23.74;102440.09;4993507;28;20186;-57
2022/04/17 09:13:07;;;;;;;2.80;1.10;;;;;;;18.47;23.94;102434.84;4982303;28;20054;-56
2022/04/17 09:15:36;;;;;;;3.17;1.08;;;;;;;18.51;23.49;102433.91;4975769;28;20061;-57
2022/04/17 09:18:06;;;;;;;4.35;0.98;;;;;;;18.00;23.06;102433.72;4989929;28;20487;-57
2022/04/17 09:20:33;;;;;;;3.15;1.52;;;;;;;17.59;23.92;102435.00;4994617;28;20471;-57
2022/04/17 09:23:01;;;;;;;4.32;1.80;;;;;;;17.32;24.86;102422.19;4994802;28;20463;-57
2022/04/17 09:25:28;;;;;;;2.42;1.08;;;;;;;17.37;23.13;102419.50;4995038;28;20054;-57
2022/04/17 09:27:59;;;;;;;3.53;1.60;;;;;;;17.46;24.36;102414.19;4995127;28;20054;-57
2022/04/17 09:30:28;;;;;;;3.20;1.30;;;;;;;17.54;23.32;102418.44;4994940;28;20046;-56
2022/04/17 09:32:57;;;;;;;3.88;1.00;;;;;;;17.53;22.60;102419.34;4994875;28;20096;-57
2022/04/17 09:35:24;;;;;;;2.63;0.90;;;;;;;17.06;21.82;102408.44;4994443;28;20157;-55
2022/04/17 09:37:55;;;;;;;4.65;0.70;;;;;;;15.88;22.01;102406.50;4994609;28;20147;-56
2022/04/17 09:40:22;;;;;;;1.50;0.75;;;;;;;15.17;23.84;102402.28;4994462;28;20073;-55
2022/04/17 09:42:49;;;;;;;2.33;1.17;;;;;;;15.08;23.94;102399.63;4994921;28;20054;-56
2022/04/17 09:45:15;;;;;;;2.72;1.25;;;;;;;14.80;25.22;102411.84;4994186;28;20077;-56
2022/04/17 09:47:57;;;;;;;2.78;1.05;;;;;;;14.48;26.92;102399.59;4994437;28;20050;-56
2022/04/17 09:50:32;;;;;;;2.45;1.17;;;;;;;14.63;26.13;102405.72;4994407;28;20154;-56
2022/04/17 09:53:03;;;;;;;4.22;1.40;;;;;;;14.94;25.95;102399.66;4994309;28;20054;-57
2022/04/17 09:55:31;;;;;;;4.03;1.13;;;;;;;15.01;24.98;102401.38;4994161;28;20058;-57
2022/04/17 09:57:59;;;;;;;1.70;0.75;;;;;;;14.16;25.45;102388.19;4993859;28;20505;-56
2022/04/17 10:00:26;;;;;;;1.58;0.77;;;;;;;13.47;25.97;102389.56;4994042;28;20067;-56
2022/04/17 10:02:52;;;;;;;2.75;0.90;;;;;;;13.65;27.16;102386.22;4994168;28;20051;-56
2022/04/17 10:05:21;;;;;;;3.35;1.25;;;;;;;13.99;26.86;102379.41;4994045;28;20275;-55
2022/04/17 10:07:49;;;;;;;3.28;1.23;;;;;;;14.32;26.50;102368.22;4980429;28;20066;-56
2022/04/17 10:10:17;;;;;;;2.28;1.08;;;;;;;14.33;25.86;102365.63;4974267;28;20062;-56
2022/04/17 10:12:45;;;;;;;2.55;1.00;;;;;;;14.38;26.50;102356.06;4974494;28;20050;-55
2022/04/17 10:15:12;;;;;;;3.92;1.05;;;;;;;14.35;25.28;102363.88;4992439;28;20054;-56
2022/04/17 10:17:41;;;;;;;3.30;1.10;;;;;;;14.08;25.11;102363.81;4993710;28;20145;-56
2022/04/17 10:20:10;;;;;;;3.97;1.10;;;;;;;13.94;25.47;102349.84;4993843;28;20061;-56
2022/04/17 10:22:39;;;;;;;1.80;0.90;;;;;;;13.85;26.35;102340.25;4993496;28;20085;-56
2022/04/17 10:25:08;;;;;;;4.20;1.42;;;;;;;14.08;25.99;102342.97;4993746;28;20054;-56
2022/04/17 10:27:39;;;;;;;8.07;1.48;;;;;;;14.36;25.60;102339.53;4993666;28;20050;-56
2022/04/17 10:30:10;;;;;;;2.80;0.98;;;;;;;14.62;25.14;102338.75;4993481;28;20054;-56
2022/04/17 10:32:58;;;;;;;4.03;1.30;;;;;;;14.72;25.41;102333.53;4993906;28;20455;-56
2022/04/17 10:35:41;;;;;;;6.05;3.17;;;;;;;15.02;25.00;102335.22;4993979;28;20054;-56
2022/04/17 10:38:26;;;;;;;3.95;1.60;;;;;;;15.32;24.95;102339.53;4993600;28;20061;-55
2022/04/17 10:40:55;;;;;;;1.15;0.80;;;;;;;15.55;23.34;102329.00;4989719;28;20129;-56
2022/04/17 10:43:22;;;;;;;6.88;1.90;;;;;;;15.45;22.66;102327.31;4989267;28;20058;-54
2022/04/17 10:46:08;;;;;;;4.03;1.48;;;;;;;15.11;23.98;102319.56;4987586;28;20087;-55
2022/04/17 10:48:42;;;;;;;5.88;1.80;;;;;;;15.24;23.09;102317.78;4993842;28;20450;-55
2022/04/17 10:51:13;;;;;;;1.92;0.93;;;;;;;15.29;23.68;102309.94;4993953;28;20061;-55
2022/04/17 10:53:50;;;;;;;3.72;1.20;;;;;;;15.40;23.45;102310.78;4992675;28;20054;-56
2022/04/17 10:56:18;;;;;;;1.85;1.13;;;;;;;15.53;23.67;102311.59;4993979;28;20050;-56
2022/04/17 10:58:52;;;;;;;1.70;1.02;;;;;;;15.72;23.63;102306.34;4993518;28;20063;-56
2022/04/17 11:01:51;;;;;;;2.97;1.27;;;;;;;15.98;21.96;102300.09;4992781;28;20046;-56
2022/04/17 11:04:18;;;;;;;2.08;1.05;;;;;;;16.07;22.42;102295.66;4987334;28;20054;-53
2022/04/17 11:06:45;;;;;;;1.63;0.80;;;;;;;16.23;22.86;102282.50;4993207;28;20058;-56
2022/04/17 11:09:15;;;;;;;2.13;1.10;;;;;;;16.36;22.78;102290.25;4987597;28;20046;-57
2022/04/17 11:11:43;;;;;;;4.00;1.45;;;;;;;16.18;22.67;102284.28;4980758;28;20046;-56
2022/04/17 11:14:13;;;;;;;2.50;1.33;;;;;;;16.12;22.83;102279.06;4988099;28;20511;-57
2022/04/17 11:16:42;;;;;;;3.83;1.42;;;;;;;16.07;23.00;102272.13;4990835;28;20058;-56
2022/04/17 11:19:11;;;;;;;2.70;1.50;;;;;;;16.08;23.64;102278.22;4989449;28;20506;-57
2022/04/17 11:21:38;;;;;;;3.33;1.52;;;;;;;16.08;23.56;102267.75;4993285;28;20057;-57
2022/04/17 11:24:05;;;;;;;2.15;1.00;;;;;;;16.16;23.71;102266.00;4992972;28;20487;-56
2022/04/17 11:27:09;;;;;;;3.67;1.83;;;;;;;16.12;22.76;102268.59;4993036;28;20050;-57
2022/04/17 11:29:41;;;;;;;2.95;1.48;;;;;;;15.80;23.24;102261.84;4974643;28;20054;-57
2022/04/17 11:32:48;;;;;;;2.80;1.60;;;;;;;15.58;23.58;102273.28;4993131;28;20146;-57
2022/04/17 11:35:16;;;;;;;3.30;1.67;;;;;;;15.54;23.89;102271.50;4988378;28;20054;-53
2022/04/17 11:37:54;;;;;;;3.70;1.67;;;;;;;15.46;23.85;102275.03;4996625;28;20054;-57
2022/04/17 11:40:23;;;;;;;3.05;1.30;;;;;;;15.06;24.11;102276.91;4997040;28;20049;-56
2022/04/17 11:42:53;;;;;;;1.52;0.90;;;;;;;15.03;24.57;102276.03;4996460;28;20444;-55
2022/04/17 11:45:22;;;;;;;2.40;1.45;;;;;;;15.04;24.35;102278.63;4996682;28;20054;-56